sensor_id;sensor_type;location;lat;lon;timestamp;temperature;humidity
14053;DHT22;7101;51.600;7.310;2023-07-08T00:00:19;18.70;99.90
14053;DHT22;7101;51.600;7.310;2023-07-08T00:02:50;18.70;99.90
14053;DHT22;7101;51.600;7.310;2023-07-08T00:05:20;18.70;99.90
14053;DHT22;7101;51.600;7.310;2023-07-08T00:07:47;18.60;99.90
14053;DHT22;7101;51.600;7.310;2023-07-08T00:10:24;18.60;99.90
14053;DHT22;7101;51.600;7.310;2023-07-08T00:12:53;18.60;99.90
14053;DHT22;7101;51.600;7.310;2023-07-08T00:15:24;18.80;99.90
14053;DHT22;7101;51.600;7.310;2023-07-08T00:17:51;18.70;99.90
14053;DHT22;7101;51.600;7.310;2023-07-08T00:20:23;18.80;99.90
14053;DHT22;7101;51.600;7.310;2023-07-08T00:22:54;18.90;99.90
14053;DHT22;7101;51.600;7.310;2023-07-08T00:25:22;18.90;99.90
14053;DHT22;7101;51.600;7.310;2023-07-08T00:27:49;18.90;99.90
14053;DHT22;7101;51.600;7.310;2023-07-08T00:30:22;19.00;99.90
14053;DHT22;7101;51.600;7.310;2023-07-08T00:32:49;19.00;99.90
14053;DHT22;7101;51.600;7.310;2023-07-08T00:35:21;19.10;99.90
14053;DHT22;7101;51.600;7.310;2023-07-08T00:37:50;19.00;99.90
14053;DHT22;7101;51.600;7.310;2023-07-08T00:40:21;18.90;99.90
14053;DHT22;7101;51.600;7.310;2023-07-08T00:42:49;18.90;99.90
14053;DHT22;7101;51.600;7.310;2023-07-08T00:45:32;18.80;99.90
14053;DHT22;7101;51.600;7.310;2023-07-08T00:48:06;18.90;99.90
14053;DHT22;7101;51.600;7.310;2023-07-08T00:50:35;18.80;99.90
14053;DHT22;7101;51.600;7.310;2023-07-08T00:53:27;18.70;99.90
14053;DHT22;7101;51.600;7.310;2023-07-08T00:55:59;18.70;99.90
14053;DHT22;7101;51.600;7.310;2023-07-08T00:58:32;18.80;99.90
14053;DHT22;7101;51.600;7.310;2023-07-08T01:01:02;18.90;99.90
14053;DHT22;7101;51.600;7.310;2023-07-08T01:03:30;18.80;99.90
14053;DHT22;7101;51.600;7.310;2023-07-08T01:06:03;18.90;99.90
14053;DHT22;7101;51.600;7.310;2023-07-08T01:08:32;18.90;99.90
14053;DHT22;7101;51.600;7.310;2023-07-08T01:11:02;18.90;99.90
14053;DHT22;7101;51.600;7.310;2023-07-08T01:13:32;19.00;99.90
14053;DHT22;7101;51.600;7.310;2023-07-08T01:16:00;19.10;99.90
14053;DHT22;7101;51.600;7.310;2023-07-08T01:18:28;19.00;99.90
14053;DHT22;7101;51.600;7.310;2023-07-08T01:20:55;18.90;99.90
14053;DHT22;7101;51.600;7.310;2023-07-08T01:23:24;18.80;99.90
14053;DHT22;7101;51.600;7.310;2023-07-08T01:25:51;18.70;99.90
14053;DHT22;7101;51.600;7.310;2023-07-08T01:28:19;18.70;99.90
14053;DHT22;7101;51.600;7.310;2023-07-08T01:30:48;18.70;99.90
14053;DHT22;7101;51.600;7.310;2023-07-08T01:33:19;18.70;99.90
14053;DHT22;7101;51.600;7.310;2023-07-08T01:35:48;18.70;99.90
14053;DHT22;7101;51.600;7.310;2023-07-08T01:38:18;18.70;99.90
14053;DHT22;7101;51.600;7.310;2023-07-08T01:40:52;18.70;99.90
14053;DHT22;7101;51.600;7.310;2023-07-08T01:43:19;18.60;99.90
14053;DHT22;7101;51.600;7.310;2023-07-08T01:45:47;18.60;99.90
14053;DHT22;7101;51.600;7.310;2023-07-08T01:48:18;18.50;99.90
14053;DHT22;7101;51.600;7.310;2023-07-08T01:50:48;18.50;99.90
14053;DHT22;7101;51.600;7.310;2023-07-08T01:53:18;18.50;99.90
14053;DHT22;7101;51.600;7.310;2023-07-08T01:55:46;18.30;99.90
14053;DHT22;7101;51.600;7.310;2023-07-08T01:58:14;18.20;99.90
14053;DHT22;7101;51.600;7.310;2023-07-08T02:00:41;18.20;99.90
14053;DHT22;7101;51.600;7.310;2023-07-08T02:03:08;18.10;99.90
14053;DHT22;7101;51.600;7.310;2023-07-08T02:05:36;18.10;99.90
14053;DHT22;7101;51.600;7.310;2023-07-08T02:08:04;18.00;99.90
14053;DHT22;7101;51.600;7.310;2023-07-08T02:10:32;18.00;99.90
14053;DHT22;7101;51.600;7.310;2023-07-08T02:12:59;17.90;99.90
14053;DHT22;7101;51.600;7.310;2023-07-08T02:15:27;17.90;99.90
14053;DHT22;7101;51.600;7.310;2023-07-08T02:17:57;17.80;99.90
14053;DHT22;7101;51.600;7.310;2023-07-08T02:20:23;17.80;99.90
14053;DHT22;7101;51.600;7.310;2023-07-08T02:22:50;17.90;99.90
14053;DHT22;7101;51.600;7.310;2023-07-08T02:25:18;17.90;99.90
14053;DHT22;7101;51.600;7.310;2023-07-08T02:27:45;17.90;99.90
14053;DHT22;7101;51.600;7.310;2023-07-08T02:30:12;17.80;99.90
14053;DHT22;7101;51.600;7.310;2023-07-08T02:32:41;17.90;99.90
14053;DHT22;7101;51.600;7.310;2023-07-08T02:35:14;17.80;99.90
14053;DHT22;7101;51.600;7.310;2023-07-08T02:37:41;17.80;99.90
14053;DHT22;7101;51.600;7.310;2023-07-08T02:40:09;17.70;99.90
14053;DHT22;7101;51.600;7.310;2023-07-08T02:42:37;17.60;99.90
14053;DHT22;7101;51.600;7.310;2023-07-08T02:45:05;17.60;99.90
14053;DHT22;7101;51.600;7.310;2023-07-08T02:47:33;17.50;99.90
14053;DHT22;7101;51.600;7.310;2023-07-08T02:50:02;17.50;99.90
14053;DHT22;7101;51.600;7.310;2023-07-08T02:52:30;17.40;99.90
14053;DHT22;7101;51.600;7.310;2023-07-08T02:54:57;17.30;99.90
14053;DHT22;7101;51.600;7.310;2023-07-08T02:57:24;17.30;99.90
14053;DHT22;7101;51.600;7.310;2023-07-08T02:59:51;17.30;99.90
14053;DHT22;7101;51.600;7.310;2023-07-08T03:02:21;17.20;99.90
14053;DHT22;7101;51.600;7.310;2023-07-08T03:04:48;17.20;99.90
14053;DHT22;7101;51.600;7.310;2023-07-08T03:07:17;17.10;99.90
14053;DHT22;7101;51.600;7.310;2023-07-08T03:09:49;17.00;99.90
14053;DHT22;7101;51.600;7.310;2023-07-08T03:12:16;16.80;99.90
14053;DHT22;7101;51.600;7.310;2023-07-08T03:14:43;16.70;99.90
14053;DHT22;7101;51.600;7.310;2023-07-08T03:17:10;16.60;99.90
14053;DHT22;7101;51.600;7.310;2023-07-08T03:19:37;16.60;99.90
14053;DHT22;7101;51.600;7.310;2023-07-08T03:22:04;16.60;99.90
14053;DHT22;7101;51.600;7.310;2023-07-08T03:24:34;16.60;99.90
14053;DHT22;7101;51.600;7.310;2023-07-08T03:27:01;16.50;99.90
14053;DHT22;7101;51.600;7.310;2023-07-08T03:29:30;16.50;99.90
14053;DHT22;7101;51.600;7.310;2023-07-08T03:31:57;16.40;99.90
14053;DHT22;7101;51.600;7.310;2023-07-08T03:34:25;16.50;99.90
14053;DHT22;7101;51.600;7.310;2023-07-08T03:36:54;16.40;99.90
14053;DHT22;7101;51.600;7.310;2023-07-08T03:39:23;16.50;99.90
14053;DHT22;7101;51.600;7.310;2023-07-08T03:41:54;16.60;99.90
14053;DHT22;7101;51.600;7.310;2023-07-08T03:44:22;16.60;99.90
14053;DHT22;7101;51.600;7.310;2023-07-08T03:46:49;16.60;99.90
14053;DHT22;7101;51.600;7.310;2023-07-08T03:49:17;16.60;99.90
14053;DHT22;7101;51.600;7.310;2023-07-08T03:51:48;16.50;99.90
14053;DHT22;7101;51.600;7.310;2023-07-08T03:54:17;16.50;99.90
14053;DHT22;7101;51.600;7.310;2023-07-08T03:56:44;16.60;99.90
14053;DHT22;7101;51.600;7.310;2023-07-08T03:59:13;16.50;99.90
14053;DHT22;7101;51.600;7.310;2023-07-08T04:01:40;16.60;99.90
14053;DHT22;7101;51.600;7.310;2023-07-08T04:04:08;16.70;99.90
14053;DHT22;7101;51.600;7.310;2023-07-08T04:06:37;16.80;99.90
14053;DHT22;7101;51.600;7.310;2023-07-08T04:09:04;16.90;99.90
14053;DHT22;7101;51.600;7.310;2023-07-08T04:11:30;16.90;99.90
14053;DHT22;7101;51.600;7.310;2023-07-08T04:13:57;17.20;99.90
14053;DHT22;7101;51.600;7.310;2023-07-08T04:16:29;17.90;99.90
14053;DHT22;7101;51.600;7.310;2023-07-08T04:18:57;18.70;99.90
14053;DHT22;7101;51.600;7.310;2023-07-08T04:21:25;19.40;99.90
14053;DHT22;7101;51.600;7.310;2023-07-08T04:23:52;20.00;99.90
14053;DHT22;7101;51.600;7.310;2023-07-08T04:26:19;20.70;99.90
14053;DHT22;7101;51.600;7.310;2023-07-08T04:28:46;21.20;99.90
14053;DHT22;7101;51.600;7.310;2023-07-08T04:31:13;21.70;99.90
14053;DHT22;7101;51.600;7.310;2023-07-08T04:33:41;22.00;99.90
14053;DHT22;7101;51.600;7.310;2023-07-08T04:36:12;22.40;99.90
14053;DHT22;7101;51.600;7.310;2023-07-08T04:38:40;22.70;99.90
14053;DHT22;7101;51.600;7.310;2023-07-08T04:41:07;23.40;99.90
14053;DHT22;7101;51.600;7.310;2023-07-08T04:43:36;23.80;99.90
14053;DHT22;7101;51.600;7.310;2023-07-08T04:46:08;23.40;99.90
14053;DHT22;7101;51.600;7.310;2023-07-08T04:48:43;23.60;99.90
14053;DHT22;7101;51.600;7.310;2023-07-08T04:51:12;23.90;99.90
14053;DHT22;7101;51.600;7.310;2023-07-08T04:53:39;24.20;99.90
14053;DHT22;7101;51.600;7.310;2023-07-08T04:56:08;24.50;99.90
14053;DHT22;7101;51.600;7.310;2023-07-08T04:58:35;24.80;99.90
14053;DHT22;7101;51.600;7.310;2023-07-08T05:01:04;25.60;99.90
14053;DHT22;7101;51.600;7.310;2023-07-08T05:03:31;24.90;99.90
14053;DHT22;7101;51.600;7.310;2023-07-08T05:06:00;24.60;99.90
14053;DHT22;7101;51.600;7.310;2023-07-08T05:08:27;25.00;99.90
14053;DHT22;7101;51.600;7.310;2023-07-08T05:10:53;25.50;99.90
14053;DHT22;7101;51.600;7.310;2023-07-08T05:13:20;26.40;99.90
14053;DHT22;7101;51.600;7.310;2023-07-08T05:15:48;26.80;99.90
14053;DHT22;7101;51.600;7.310;2023-07-08T05:18:15;26.40;99.90
14053;DHT22;7101;51.600;7.310;2023-07-08T05:20:42;25.60;99.90
14053;DHT22;7101;51.600;7.310;2023-07-08T05:23:11;26.00;99.90
14053;DHT22;7101;51.600;7.310;2023-07-08T05:25:38;26.50;99.90
14053;DHT22;7101;51.600;7.310;2023-07-08T05:28:05;27.50;98.20
14053;DHT22;7101;51.600;7.310;2023-07-08T05:30:35;27.30;97.10
14053;DHT22;7101;51.600;7.310;2023-07-08T05:33:02;27.70;96.00
14053;DHT22;7101;51.600;7.310;2023-07-08T05:35:29;27.70;94.70
14053;DHT22;7101;51.600;7.310;2023-07-08T05:37:56;27.70;96.00
14053;DHT22;7101;51.600;7.310;2023-07-08T05:40:25;27.80;92.20
14053;DHT22;7101;51.600;7.310;2023-07-08T05:42:52;28.20;91.10
14053;DHT22;7101;51.600;7.310;2023-07-08T05:45:19;28.00;91.30
14053;DHT22;7101;51.600;7.310;2023-07-08T05:47:46;28.50;87.90
14053;DHT22;7101;51.600;7.310;2023-07-08T05:50:13;28.40;88.40
14053;DHT22;7101;51.600;7.310;2023-07-08T05:52:40;28.20;87.00
14053;DHT22;7101;51.600;7.310;2023-07-08T05:55:07;28.40;88.20
14053;DHT22;7101;51.600;7.310;2023-07-08T05:57:37;28.30;87.60
14053;DHT22;7101;51.600;7.310;2023-07-08T06:00:06;28.30;85.70
14053;DHT22;7101;51.600;7.310;2023-07-08T06:02:34;28.10;86.90
14053;DHT22;7101;51.600;7.310;2023-07-08T06:05:01;28.30;87.80
14053;DHT22;7101;51.600;7.310;2023-07-08T06:07:28;28.80;83.10
14053;DHT22;7101;51.600;7.310;2023-07-08T06:09:55;28.60;86.10
14053;DHT22;7101;51.600;7.310;2023-07-08T06:12:22;29.10;81.50
14053;DHT22;7101;51.600;7.310;2023-07-08T06:14:51;29.50;80.30
14053;DHT22;7101;51.600;7.310;2023-07-08T06:17:17;29.40;81.80
14053;DHT22;7101;51.600;7.310;2023-07-08T06:19:44;29.70;78.40
14053;DHT22;7101;51.600;7.310;2023-07-08T06:22:11;30.40;77.50
14053;DHT22;7101;51.600;7.310;2023-07-08T06:24:39;30.50;72.20
14053;DHT22;7101;51.600;7.310;2023-07-08T06:27:06;30.50;75.20
14053;DHT22;7101;51.600;7.310;2023-07-08T06:29:34;30.20;72.20
14053;DHT22;7101;51.600;7.310;2023-07-08T06:32:03;29.80;71.60
14053;DHT22;7101;51.600;7.310;2023-07-08T06:34:31;30.30;74.10
14053;DHT22;7101;51.600;7.310;2023-07-08T06:36:58;30.60;70.40
14053;DHT22;7101;51.600;7.310;2023-07-08T06:39:25;30.70;72.40
14053;DHT22;7101;51.600;7.310;2023-07-08T06:41:52;31.10;69.20
14053;DHT22;7101;51.600;7.310;2023-07-08T06:44:19;31.10;72.00
14053;DHT22;7101;51.600;7.310;2023-07-08T06:46:46;31.40;68.90
14053;DHT22;7101;51.600;7.310;2023-07-08T06:49:16;31.50;66.60
14053;DHT22;7101;51.600;7.310;2023-07-08T06:51:46;31.70;70.20
14053;DHT22;7101;51.600;7.310;2023-07-08T06:54:13;31.60;64.90
14053;DHT22;7101;51.600;7.310;2023-07-08T06:56:41;31.50;67.20
14053;DHT22;7101;51.600;7.310;2023-07-08T06:59:08;31.60;67.90
14053;DHT22;7101;51.600;7.310;2023-07-08T07:01:36;31.90;65.40
14053;DHT22;7101;51.600;7.310;2023-07-08T07:04:05;31.80;64.00
14053;DHT22;7101;51.600;7.310;2023-07-08T07:06:33;32.10;64.00
14053;DHT22;7101;51.600;7.310;2023-07-08T07:09:02;32.30;63.40
14053;DHT22;7101;51.600;7.310;2023-07-08T07:11:32;32.30;61.40
14053;DHT22;7101;51.600;7.310;2023-07-08T07:13:59;32.60;60.00
14053;DHT22;7101;51.600;7.310;2023-07-08T07:16:26;33.10;62.90
14053;DHT22;7101;51.600;7.310;2023-07-08T07:18:53;33.20;60.10
14053;DHT22;7101;51.600;7.310;2023-07-08T07:21:20;33.20;58.40
14053;DHT22;7101;51.600;7.310;2023-07-08T07:23:48;33.20;58.00
14053;DHT22;7101;51.600;7.310;2023-07-08T07:26:16;32.70;57.70
14053;DHT22;7101;51.600;7.310;2023-07-08T07:28:43;33.00;57.90
14053;DHT22;7101;51.600;7.310;2023-07-08T07:31:10;33.10;57.10
14053;DHT22;7101;51.600;7.310;2023-07-08T07:33:38;31.90;59.10
14053;DHT22;7101;51.600;7.310;2023-07-08T07:36:05;31.80;62.30
14053;DHT22;7101;51.600;7.310;2023-07-08T07:38:33;31.90;62.80
14053;DHT22;7101;51.600;7.310;2023-07-08T07:41:02;32.40;59.00
14053;DHT22;7101;51.600;7.310;2023-07-08T07:43:33;33.10;56.80
14053;DHT22;7101;51.600;7.310;2023-07-08T07:46:00;33.50;58.70
14053;DHT22;7101;51.600;7.310;2023-07-08T07:48:28;33.30;58.70
14053;DHT22;7101;51.600;7.310;2023-07-08T07:50:55;33.20;57.90
14053;DHT22;7101;51.600;7.310;2023-07-08T07:53:25;33.00;59.30
14053;DHT22;7101;51.600;7.310;2023-07-08T07:55:56;33.00;61.00
14053;DHT22;7101;51.600;7.310;2023-07-08T07:58:26;32.90;57.90
14053;DHT22;7101;51.600;7.310;2023-07-08T08:00:53;33.30;58.50
14053;DHT22;7101;51.600;7.310;2023-07-08T08:03:20;33.50;57.60
14053;DHT22;7101;51.600;7.310;2023-07-08T08:05:48;33.40;58.10
14053;DHT22;7101;51.600;7.310;2023-07-08T08:08:15;33.20;56.60
14053;DHT22;7101;51.600;7.310;2023-07-08T08:10:43;32.80;60.00
14053;DHT22;7101;51.600;7.310;2023-07-08T08:13:10;33.00;60.40
14053;DHT22;7101;51.600;7.310;2023-07-08T08:15:39;33.60;59.50
14053;DHT22;7101;51.600;7.310;2023-07-08T08:18:05;33.80;54.90
14053;DHT22;7101;51.600;7.310;2023-07-08T08:20:32;33.90;58.80
14053;DHT22;7101;51.600;7.310;2023-07-08T08:23:00;33.30;57.00
14053;DHT22;7101;51.600;7.310;2023-07-08T08:25:29;33.10;57.50
14053;DHT22;7101;51.600;7.310;2023-07-08T08:27:56;33.40;56.40
14053;DHT22;7101;51.600;7.310;2023-07-08T08:30:23;34.00;56.20
14053;DHT22;7101;51.600;7.310;2023-07-08T08:32:52;34.00;59.40
14053;DHT22;7101;51.600;7.310;2023-07-08T08:35:19;34.20;54.20
14053;DHT22;7101;51.600;7.310;2023-07-08T08:37:46;34.30;57.80
14053;DHT22;7101;51.600;7.310;2023-07-08T08:40:16;34.00;54.10
14053;DHT22;7101;51.600;7.310;2023-07-08T08:42:49;33.60;56.60
14053;DHT22;7101;51.600;7.310;2023-07-08T08:45:19;33.40;55.50
14053;DHT22;7101;51.600;7.310;2023-07-08T08:47:49;33.80;55.90
14053;DHT22;7101;51.600;7.310;2023-07-08T08:50:32;33.90;58.70
14053;DHT22;7101;51.600;7.310;2023-07-08T08:53:03;34.40;56.80
14053;DHT22;7101;51.600;7.310;2023-07-08T08:55:31;34.00;55.40
14053;DHT22;7101;51.600;7.310;2023-07-08T08:58:06;33.60;55.30
14053;DHT22;7101;51.600;7.310;2023-07-08T09:00:45;33.50;55.90
14053;DHT22;7101;51.600;7.310;2023-07-08T09:03:17;32.90;59.40
14053;DHT22;7101;51.600;7.310;2023-07-08T09:05:46;33.00;57.00
14053;DHT22;7101;51.600;7.310;2023-07-08T09:08:18;33.60;57.90
14053;DHT22;7101;51.600;7.310;2023-07-08T09:10:48;33.90;59.00
14053;DHT22;7101;51.600;7.310;2023-07-08T09:13:21;34.10;56.50
14053;DHT22;7101;51.600;7.310;2023-07-08T09:15:57;34.50;55.10
14053;DHT22;7101;51.600;7.310;2023-07-08T09:18:31;34.70;57.00
14053;DHT22;7101;51.600;7.310;2023-07-08T09:21:12;34.50;58.20
14053;DHT22;7101;51.600;7.310;2023-07-08T09:23:43;34.70;55.40
14053;DHT22;7101;51.600;7.310;2023-07-08T09:26:15;34.50;54.50
14053;DHT22;7101;51.600;7.310;2023-07-08T09:28:44;34.50;55.60
14053;DHT22;7101;51.600;7.310;2023-07-08T09:31:21;34.50;54.90
14053;DHT22;7101;51.600;7.310;2023-07-08T09:33:51;34.60;59.60
14053;DHT22;7101;51.600;7.310;2023-07-08T09:36:23;34.30;55.80
14053;DHT22;7101;51.600;7.310;2023-07-08T09:38:54;33.80;58.60
14053;DHT22;7101;51.600;7.310;2023-07-08T09:41:32;33.10;59.80
14053;DHT22;7101;51.600;7.310;2023-07-08T09:44:06;33.70;58.50
14053;DHT22;7101;51.600;7.310;2023-07-08T09:46:38;33.50;58.10
14053;DHT22;7101;51.600;7.310;2023-07-08T09:49:22;33.50;57.00
14053;DHT22;7101;51.600;7.310;2023-07-08T09:51:52;33.30;59.70
14053;DHT22;7101;51.600;7.310;2023-07-08T09:54:20;33.20;58.50
14053;DHT22;7101;51.600;7.310;2023-07-08T09:56:58;33.20;60.90
14053;DHT22;7101;51.600;7.310;2023-07-08T09:59:30;33.50;56.90
14053;DHT22;7101;51.600;7.310;2023-07-08T10:02:00;33.00;57.60
14053;DHT22;7101;51.600;7.310;2023-07-08T10:04:28;33.10;61.90
14053;DHT22;7101;51.600;7.310;2023-07-08T10:06:57;33.50;59.30
14053;DHT22;7101;51.600;7.310;2023-07-08T10:09:26;33.70;56.70
14053;DHT22;7101;51.600;7.310;2023-07-08T10:11:58;33.90;57.00
14053;DHT22;7101;51.600;7.310;2023-07-08T10:14:29;34.30;63.20
14053;DHT22;7101;51.600;7.310;2023-07-08T10:16:57;34.70;57.30
14053;DHT22;7101;51.600;7.310;2023-07-08T10:19:24;34.80;56.20
14053;DHT22;7101;51.600;7.310;2023-07-08T10:21:59;34.70;54.30
14053;DHT22;7101;51.600;7.310;2023-07-08T10:24:45;34.70;54.30
14053;DHT22;7101;51.600;7.310;2023-07-08T10:27:24;34.90;53.20
14053;DHT22;7101;51.600;7.310;2023-07-08T10:30:06;35.00;54.30
14053;DHT22;7101;51.600;7.310;2023-07-08T10:32:45;35.20;51.30
14053;DHT22;7101;51.600;7.310;2023-07-08T10:35:20;35.20;52.80
14053;DHT22;7101;51.600;7.310;2023-07-08T10:38:01;35.40;52.00
14053;DHT22;7101;51.600;7.310;2023-07-08T10:40:38;35.70;52.90
14053;DHT22;7101;51.600;7.310;2023-07-08T10:43:28;35.60;49.30
14053;DHT22;7101;51.600;7.310;2023-07-08T10:46:06;35.80;45.70
14053;DHT22;7101;51.600;7.310;2023-07-08T10:48:56;35.90;47.40
14053;DHT22;7101;51.600;7.310;2023-07-08T10:51:32;36.30;49.20
14053;DHT22;7101;51.600;7.310;2023-07-08T10:54:20;36.60;48.80
14053;DHT22;7101;51.600;7.310;2023-07-08T10:56:54;36.70;44.10
14053;DHT22;7101;51.600;7.310;2023-07-08T10:59:38;36.30;44.80
14053;DHT22;7101;51.600;7.310;2023-07-08T11:02:30;36.10;46.00
14053;DHT22;7101;51.600;7.310;2023-07-08T11:05:14;35.70;47.70
14053;DHT22;7101;51.600;7.310;2023-07-08T11:07:50;35.80;44.50
14053;DHT22;7101;51.600;7.310;2023-07-08T11:10:25;35.50;45.70
14053;DHT22;7101;51.600;7.310;2023-07-08T11:12:58;35.70;45.80
14053;DHT22;7101;51.600;7.310;2023-07-08T11:15:29;35.60;45.30
14053;DHT22;7101;51.600;7.310;2023-07-08T11:18:00;35.40;46.80
14053;DHT22;7101;51.600;7.310;2023-07-08T11:20:37;35.30;45.20
14053;DHT22;7101;51.600;7.310;2023-07-08T11:23:08;35.20;47.90
14053;DHT22;7101;51.600;7.310;2023-07-08T11:25:40;35.40;45.60
14053;DHT22;7101;51.600;7.310;2023-07-08T11:28:14;35.20;44.40
14053;DHT22;7101;51.600;7.310;2023-07-08T11:30:46;35.10;46.60
14053;DHT22;7101;51.600;7.310;2023-07-08T11:33:15;35.10;44.60
14053;DHT22;7101;51.600;7.310;2023-07-08T11:35:45;35.20;46.00
14053;DHT22;7101;51.600;7.310;2023-07-08T11:38:15;34.90;46.40
14053;DHT22;7101;51.600;7.310;2023-07-08T11:40:56;34.90;44.00
14053;DHT22;7101;51.600;7.310;2023-07-08T11:43:27;34.60;45.80
14053;DHT22;7101;51.600;7.310;2023-07-08T11:45:56;34.90;48.00
14053;DHT22;7101;51.600;7.310;2023-07-08T11:48:29;34.80;44.00
14053;DHT22;7101;51.600;7.310;2023-07-08T11:51:04;34.40;45.50
14053;DHT22;7101;51.600;7.310;2023-07-08T11:53:35;34.10;45.90
14053;DHT22;7101;51.600;7.310;2023-07-08T11:56:20;34.10;44.50
14053;DHT22;7101;51.600;7.310;2023-07-08T11:58:54;34.40;48.80
14053;DHT22;7101;51.600;7.310;2023-07-08T12:01:27;34.50;47.20
14053;DHT22;7101;51.600;7.310;2023-07-08T12:03:59;34.60;44.90
14053;DHT22;7101;51.600;7.310;2023-07-08T12:06:43;34.50;49.10
14053;DHT22;7101;51.600;7.310;2023-07-08T12:09:21;34.30;47.70
14053;DHT22;7101;51.600;7.310;2023-07-08T12:11:54;34.10;45.00
14053;DHT22;7101;51.600;7.310;2023-07-08T12:14:23;34.10;48.20
14053;DHT22;7101;51.600;7.310;2023-07-08T12:16:50;34.40;47.10
14053;DHT22;7101;51.600;7.310;2023-07-08T12:19:19;34.50;47.60
14053;DHT22;7101;51.600;7.310;2023-07-08T12:21:48;34.50;46.80
14053;DHT22;7101;51.600;7.310;2023-07-08T12:24:16;34.80;47.30
14053;DHT22;7101;51.600;7.310;2023-07-08T12:26:44;34.70;45.20
14053;DHT22;7101;51.600;7.310;2023-07-08T12:29:13;34.60;47.70
14053;DHT22;7101;51.600;7.310;2023-07-08T12:31:41;34.60;43.50
14053;DHT22;7101;51.600;7.310;2023-07-08T12:34:13;34.70;45.50
14053;DHT22;7101;51.600;7.310;2023-07-08T12:36:43;34.60;44.60
14053;DHT22;7101;51.600;7.310;2023-07-08T12:39:14;34.70;45.10
14053;DHT22;7101;51.600;7.310;2023-07-08T12:41:43;35.00;45.90
14053;DHT22;7101;51.600;7.310;2023-07-08T12:44:18;35.00;43.90
14053;DHT22;7101;51.600;7.310;2023-07-08T12:46:46;34.90;44.00
14053;DHT22;7101;51.600;7.310;2023-07-08T12:49:18;34.50;42.90
14053;DHT22;7101;51.600;7.310;2023-07-08T12:51:45;34.40;46.00
14053;DHT22;7101;51.600;7.310;2023-07-08T12:54:16;34.60;44.90
14053;DHT22;7101;51.600;7.310;2023-07-08T12:56:45;34.60;44.00
14053;DHT22;7101;51.600;7.310;2023-07-08T12:59:18;34.90;47.90
14053;DHT22;7101;51.600;7.310;2023-07-08T13:01:47;35.10;46.00
14053;DHT22;7101;51.600;7.310;2023-07-08T13:04:16;35.20;46.80
14053;DHT22;7101;51.600;7.310;2023-07-08T13:06:45;35.30;44.10
14053;DHT22;7101;51.600;7.310;2023-07-08T13:09:34;35.10;43.80
14053;DHT22;7101;51.600;7.310;2023-07-08T13:12:10;34.90;43.70
14053;DHT22;7101;51.600;7.310;2023-07-08T13:14:41;34.80;45.00
14053;DHT22;7101;51.600;7.310;2023-07-08T13:17:12;34.90;41.20
14053;DHT22;7101;51.600;7.310;2023-07-08T13:19:40;34.70;46.50
14053;DHT22;7101;51.600;7.310;2023-07-08T13:22:12;34.80;44.30
14053;DHT22;7101;51.600;7.310;2023-07-08T13:24:43;34.70;45.10
14053;DHT22;7101;51.600;7.310;2023-07-08T13:27:18;34.80;45.10
14053;DHT22;7101;51.600;7.310;2023-07-08T13:29:51;34.70;44.00
14053;DHT22;7101;51.600;7.310;2023-07-08T13:32:18;34.90;44.90
14053;DHT22;7101;51.600;7.310;2023-07-08T13:34:48;35.10;41.30
14053;DHT22;7101;51.600;7.310;2023-07-08T13:37:16;35.20;45.40
14053;DHT22;7101;51.600;7.310;2023-07-08T13:39:47;35.20;46.10
14053;DHT22;7101;51.600;7.310;2023-07-08T13:42:15;35.30;46.20
14053;DHT22;7101;51.600;7.310;2023-07-08T13:44:43;35.30;45.70
14053;DHT22;7101;51.600;7.310;2023-07-08T13:47:26;35.30;44.60
14053;DHT22;7101;51.600;7.310;2023-07-08T13:49:58;35.40;45.60
14053;DHT22;7101;51.600;7.310;2023-07-08T13:52:28;35.20;41.40
14053;DHT22;7101;51.600;7.310;2023-07-08T13:55:00;35.10;43.30
14053;DHT22;7101;51.600;7.310;2023-07-08T13:57:32;34.90;41.90
14053;DHT22;7101;51.600;7.310;2023-07-08T13:59:59;34.70;42.60
14053;DHT22;7101;51.600;7.310;2023-07-08T14:02:31;34.30;42.40
14053;DHT22;7101;51.600;7.310;2023-07-08T14:04:58;34.60;45.20
14053;DHT22;7101;51.600;7.310;2023-07-08T14:07:28;34.70;45.50
14053;DHT22;7101;51.600;7.310;2023-07-08T14:09:56;35.00;44.50
14053;DHT22;7101;51.600;7.310;2023-07-08T14:12:24;35.30;43.10
14053;DHT22;7101;51.600;7.310;2023-07-08T14:14:51;35.40;41.10
14053;DHT22;7101;51.600;7.310;2023-07-08T14:17:22;35.40;42.40
14053;DHT22;7101;51.600;7.310;2023-07-08T14:19:55;35.30;42.60
14053;DHT22;7101;51.600;7.310;2023-07-08T14:22:24;35.10;41.10
14053;DHT22;7101;51.600;7.310;2023-07-08T14:24:55;35.30;42.20
14053;DHT22;7101;51.600;7.310;2023-07-08T14:27:23;35.40;43.10
14053;DHT22;7101;51.600;7.310;2023-07-08T14:29:51;35.60;44.40
14053;DHT22;7101;51.600;7.310;2023-07-08T14:32:21;35.70;44.20
14053;DHT22;7101;51.600;7.310;2023-07-08T14:34:51;35.80;45.40
14053;DHT22;7101;51.600;7.310;2023-07-08T14:37:20;35.90;43.20
14053;DHT22;7101;51.600;7.310;2023-07-08T14:39:48;35.90;42.90
14053;DHT22;7101;51.600;7.310;2023-07-08T14:42:16;36.00;43.50
14053;DHT22;7101;51.600;7.310;2023-07-08T14:44:45;35.80;41.50
14053;DHT22;7101;51.600;7.310;2023-07-08T14:47:16;35.70;42.90
14053;DHT22;7101;51.600;7.310;2023-07-08T14:49:43;35.50;40.90
14053;DHT22;7101;51.600;7.310;2023-07-08T14:52:11;35.60;40.80
14053;DHT22;7101;51.600;7.310;2023-07-08T14:54:39;35.40;43.40
14053;DHT22;7101;51.600;7.310;2023-07-08T14:57:07;35.00;43.70
14053;DHT22;7101;51.600;7.310;2023-07-08T14:59:35;34.90;44.30
14053;DHT22;7101;51.600;7.310;2023-07-08T15:02:15;34.70;44.70
14053;DHT22;7101;51.600;7.310;2023-07-08T15:04:43;34.60;45.20
14053;DHT22;7101;51.600;7.310;2023-07-08T15:07:10;34.90;45.90
14053;DHT22;7101;51.600;7.310;2023-07-08T15:09:39;35.20;44.80
14053;DHT22;7101;51.600;7.310;2023-07-08T15:12:09;35.30;41.70
14053;DHT22;7101;51.600;7.310;2023-07-08T15:14:36;35.40;41.90
14053;DHT22;7101;51.600;7.310;2023-07-08T15:17:10;35.30;40.30
14053;DHT22;7101;51.600;7.310;2023-07-08T15:19:40;35.40;42.70
14053;DHT22;7101;51.600;7.310;2023-07-08T15:22:07;35.20;41.70
14053;DHT22;7101;51.600;7.310;2023-07-08T15:24:34;35.40;43.90
14053;DHT22;7101;51.600;7.310;2023-07-08T15:27:03;35.70;46.10
14053;DHT22;7101;51.600;7.310;2023-07-08T15:29:32;35.90;46.90
14053;DHT22;7101;51.600;7.310;2023-07-08T15:32:00;35.90;42.40
14053;DHT22;7101;51.600;7.310;2023-07-08T15:34:27;35.70;40.50
14053;DHT22;7101;51.600;7.310;2023-07-08T15:36:54;35.60;43.30
14053;DHT22;7101;51.600;7.310;2023-07-08T15:39:21;35.40;41.80
14053;DHT22;7101;51.600;7.310;2023-07-08T15:41:48;35.20;41.50
14053;DHT22;7101;51.600;7.310;2023-07-08T15:44:17;35.00;43.90
14053;DHT22;7101;51.600;7.310;2023-07-08T15:46:46;34.90;42.20
14053;DHT22;7101;51.600;7.310;2023-07-08T15:49:15;34.80;44.80
14053;DHT22;7101;51.600;7.310;2023-07-08T15:51:42;34.70;45.00
14053;DHT22;7101;51.600;7.310;2023-07-08T15:54:10;34.90;45.00
14053;DHT22;7101;51.600;7.310;2023-07-08T15:56:38;34.80;44.00
14053;DHT22;7101;51.600;7.310;2023-07-08T15:59:07;34.80;43.20
14053;DHT22;7101;51.600;7.310;2023-07-08T16:01:37;34.80;42.60